Time;durP1;ratioP1;P1;durP2;ratioP2;P2;SDS_P1;SDS_P2;PMS_P1;PMS_P2;Temp;Humidity;BMP_temperature;BMP_pressure;BME280_temperature;BME280_humidity;BME280_pressure;Samples;Min_cycle;Max_cycle;Signal;HPM_P1;HPM_P2
2021/12/17 00:11:21;;;;;;;0.17;0.17;;;9.30;96.10;8.20;103901.00;;;;30948326;28;20061;-75
2021/12/17 00:57:13;;;;;;;0.20;0.20;;;9.30;96.10;8.10;103888.00;;;;30939917;28;20097;-76
2021/12/17 01:12:16;;;;;;;0.10;0.10;;;9.20;96.10;8.00;103867.00;;;;30934730;28;20057;-76
2021/12/17 01:43:40;;;;;;;0.30;0.30;;;9.10;96.60;8.10;103859.00;;;;30918361;28;20046;-76
2021/12/17 02:59:52;;;;;;;0.20;0.20;;;8.80;96.50;7.70;103890.00;;;;30811815;28;20458;-76
2021/12/17 03:15:13;;;;;;;0.35;0.25;;;8.80;96.70;7.50;103881.00;;;;30924096;28;20056;-75
2021/12/17 03:30:15;;;;;;;0.40;0.40;;;8.70;97.30;7.60;103871.00;;;;30927068;28;20054;-75
2021/12/17 03:45:19;;;;;;;0.20;0.20;;;8.80;96.90;7.70;103875.00;;;;30945673;28;20038;-76
2021/12/17 04:17:08;;;;;;;0.20;0.20;;;9.10;97.70;7.90;103876.00;;;;30924134;28;20045;-76
2021/12/17 04:32:09;;;;;;;0.20;0.20;;;9.10;97.60;7.80;103858.00;;;;30940284;28;20038;-75
2021/12/17 05:02:19;;;;;;;0.10;0.10;;;8.90;97.00;7.80;103860.00;;;;30960906;28;20413;-76
2021/12/17 05:32:49;;;;;;;0.40;0.40;;;8.90;96.80;7.80;103887.00;;;;30937314;28;20074;-76
2021/12/17 05:47:51;;;;;;;0.28;0.28;;;8.90;96.40;7.80;103891.00;;;;30923014;28;20046;-76
2021/12/17 06:02:53;;;;;;;0.10;0.10;;;8.90;96.80;7.70;103892.00;;;;30944241;28;20085;-76
2021/12/17 06:18:17;;;;;;;0.20;0.20;;;8.90;96.30;7.80;103876.00;;;;30935089;28;20046;-76
2021/12/17 06:33:19;;;;;;;0.28;0.28;;;8.90;96.90;7.60;103890.00;;;;30923353;28;20034;-77
2021/12/17 06:48:25;;;;;;;0.20;0.20;;;8.70;96.80;7.60;103893.00;;;;30938912;28;20039;-76
2021/12/17 07:20:14;;;;;;;0.15;0.15;;;8.80;96.90;7.70;103875.00;;;;30959559;28;20081;-76
2021/12/17 07:35:12;;;;;;;0.38;0.38;;;8.80;97.40;7.80;103880.00;;;;30892037;28;20050;-74
2021/12/17 07:50:03;;;;;;;0.30;0.30;;;8.90;96.80;7.70;103910.00;;;;30951046;28;20157;-76
2021/12/17 08:05:07;;;;;;;0.20;0.20;;;8.80;97.30;7.70;103904.00;;;;30938483;28;20061;-76
2021/12/17 08:35:33;;;;;;;0.20;0.20;;;8.80;97.40;7.80;103916.00;;;;30953130;28;21526;-79
2021/12/17 08:50:39;;;;;;;0.20;0.20;;;8.80;97.20;7.80;103926.00;;;;30963174;28;20050;-78
2021/12/17 09:05:46;;;;;;;0.20;0.20;;;8.30;96.90;7.70;103935.00;;;;30956887;28;20097;-79
2021/12/17 09:20:53;;;;;;;0.55;0.55;;;8.90;97.40;7.80;103934.00;;;;30929195;28;20608;-79
2021/12/17 09:36:02;;;;;;;0.20;0.20;;;8.90;97.30;7.90;103956.00;;;;30943285;28;20062;-79
2021/12/17 09:51:06;;;;;;;0.25;0.25;;;9.00;97.00;8.00;103965.00;;;;30945138;28;20120;-77
2021/12/17 10:06:29;;;;;;;0.20;0.20;;;9.00;96.80;7.80;103989.00;;;;30938589;28;20119;-79
2021/12/17 10:21:34;;;;;;;0.20;0.20;;;9.00;97.30;7.80;104000.00;;;;30937661;28;20088;-79
2021/12/17 10:36:38;;;;;;;0.23;0.23;;;8.70;97.10;8.00;103998.00;;;;30922147;28;20134;-79
2021/12/17 11:15:07;;;;;;;0.10;0.10;;;9.20;96.20;8.30;103983.00;;;;31608617;27;1533314;-78
2021/12/17 11:30:17;;;;;;;0.20;0.20;;;9.30;96.70;8.20;103986.00;;;;31512572;28;20044;-78
2021/12/17 11:45:25;;;;;;;0.20;0.20;;;9.30;96.00;8.30;103979.00;;;;31526975;28;20097;-70
2021/12/17 12:00:51;;;;;;;0.17;0.17;;;9.40;95.90;8.30;103978.00;;;;31497653;28;20024;-72
2021/12/17 12:16:03;;;;;;;0.20;0.20;;;9.40;95.80;8.40;103971.00;;;;31496981;28;20177;-71
2021/12/17 12:31:34;;;;;;;0.20;0.20;;;9.40;96.20;8.50;103969.00;;;;31439657;28;20696;-69
2021/12/17 12:46:58;;;;;;;0.17;0.17;;;9.50;95.30;8.30;103966.00;;;;31443900;28;20884;-75
2021/12/17 13:01:59;;;;;;;0.20;0.20;;;9.40;95.10;8.30;103952.00;;;;31423930;28;20053;-76
2021/12/17 13:17:51;;;;;;;0.20;0.20;;;9.40;95.30;8.40;103949.00;;;;31423247;28;20051;-76
2021/12/17 13:32:43;;;;;;;0.20;0.20;;;9.50;95.30;8.50;103957.00;;;;31429641;28;20344;-74
2021/12/17 13:47:57;;;;;;;0.20;0.20;;;9.30;94.40;8.50;103940.00;;;;31448512;28;20102;-72
2021/12/17 14:02:59;;;;;;;0.30;0.30;;;9.60;94.80;8.50;103932.00;;;;31407493;28;20044;-73
2021/12/17 14:18:07;;;;;;;0.17;0.17;;;9.60;94.10;8.50;103913.00;;;;31428440;28;20508;-73
2021/12/17 14:33:19;;;;;;;0.10;0.10;;;9.60;94.20;8.50;103925.00;;;;31442718;28;20045;-73
2021/12/17 14:48:32;;;;;;;0.10;0.10;;;9.60;93.20;8.50;103938.00;;;;31426579;28;20119;-72
2021/12/17 15:18:43;;;;;;;0.10;0.10;;;9.60;93.40;8.50;103943.00;;;;31421853;28;20052;-75
2021/12/17 15:33:44;;;;;;;0.20;0.20;;;9.60;93.70;8.40;103931.00;;;;31420672;28;20113;-75
2021/12/17 15:48:46;;;;;;;0.20;0.20;;;9.50;93.00;8.40;103937.00;;;;31422799;28;20036;-75
2021/12/17 16:03:47;;;;;;;0.15;0.15;;;9.40;93.50;8.40;103931.00;;;;31424273;28;20040;-73
2021/12/17 16:20:59;;;;;;;0.20;0.20;;;9.50;93.40;8.30;103943.00;;;;31440356;28;20508;-73
2021/12/17 16:34:16;;;;;;;0.20;0.20;;;9.50;94.40;8.40;103953.00;;;;31441178;28;20049;-73
2021/12/17 16:49:21;;;;;;;0.10;0.10;;;9.50;93.80;8.40;103941.00;;;;31418187;28;20041;-73
2021/12/17 17:04:22;;;;;;;0.13;0.13;;;9.50;94.20;8.40;103935.00;;;;31437955;28;20060;-73
2021/12/17 17:19:26;;;;;;;0.20;0.20;;;9.40;93.70;8.30;103954.00;;;;31431907;28;20056;-73
2021/12/17 17:34:28;;;;;;;0.28;0.28;;;9.40;94.00;8.40;103940.00;;;;31398906;28;20593;-74
2021/12/17 17:49:30;;;;;;;0.30;0.30;;;9.50;93.60;8.40;103923.00;;;;31439330;28;20044;-73
2021/12/17 18:04:32;;;;;;;0.20;0.20;;;9.40;94.00;8.40;103936.00;;;;31428829;28;20045;-73
2021/12/17 18:19:39;;;;;;;0.20;0.20;;;9.40;93.40;8.40;103944.00;;;;31421769;28;20135;-73
2021/12/17 18:34:40;;;;;;;0.10;0.10;;;10.50;94.00;8.50;103954.00;;;;31418284;28;20570;-73
2021/12/17 18:49:41;;;;;;;0.32;0.32;;;9.60;93.70;8.50;103953.00;;;;31396856;28;20039;-74
2021/12/17 19:04:42;;;;;;;0.20;0.20;;;9.60;93.80;8.40;103958.00;;;;31392718;28;20113;-73
2021/12/17 19:19:50;;;;;;;0.20;0.20;;;9.50;94.20;8.40;103968.00;;;;31394370;28;20087;-73
2021/12/17 19:34:51;;;;;;;0.20;0.20;;;9.40;94.30;8.40;103959.00;;;;31401003;28;20506;-73
2021/12/17 19:49:53;;;;;;;0.35;0.32;;;9.50;94.10;8.40;103972.00;;;;31415251;28;20185;-73
2021/12/17 20:04:54;;;;;;;0.15;0.15;;;9.50;94.60;8.40;103966.00;;;;31400199;28;20482;-74
2021/12/17 20:19:55;;;;;;;0.20;0.20;;;9.50;94.30;8.40;103957.00;;;;31420114;28;20060;-74
2021/12/17 20:34:57;;;;;;;0.43;0.43;;;9.50;94.80;8.40;103948.00;;;;31428975;28;20286;-74
2021/12/17 20:50:01;;;;;;;0.10;0.10;;;9.50;94.70;8.40;103951.00;;;;31394519;28;20037;-73
2021/12/17 21:05:03;;;;;;;0.30;0.30;;;9.50;94.50;8.40;103961.00;;;;31430035;28;20060;-73
2021/12/17 21:20:20;;;;;;;0.15;0.15;;;9.50;94.50;8.30;103965.00;;;;31431400;28;20044;-73
2021/12/17 21:35:21;;;;;;;0.57;0.57;;;9.40;95.40;8.20;103949.00;;;;31425915;28;20072;-73
2021/12/17 21:50:26;;;;;;;0.25;0.25;;;9.40;95.30;8.30;103960.00;;;;31406877;28;20462;-73
2021/12/17 22:05:32;;;;;;;0.20;0.20;;;9.30;95.00;8.20;103956.00;;;;31400760;28;20066;-73
2021/12/17 22:20:45;;;;;;;0.20;0.20;;;9.30;95.50;8.20;103954.00;;;;31404367;28;20062;-74
2021/12/17 22:35:47;;;;;;;0.20;0.20;;;9.30;95.30;8.10;103942.00;;;;31419702;28;20117;-74
2021/12/17 22:50:48;;;;;;;0.20;0.20;;;9.20;94.40;8.10;103942.00;;;;31416296;28;20575;-74
2021/12/17 23:05:50;;;;;;;0.20;0.20;;;9.20;94.60;8.10;103952.00;;;;31419498;28;20053;-74
2021/12/17 23:20:52;;;;;;;0.30;0.30;;;9.20;94.90;8.10;103960.00;;;;31416650;28;20045;-73
2021/12/17 23:35:54;;;;;;;0.20;0.20;;;9.20;94.90;8.10;103948.00;;;;31419786;28;20063;-73
2021/12/17 23:50:56;;;;;;;0.20;0.20;;;9.10;94.60;8.00;103949.00;;;;31417975;28;20041;-75
